Time;durP1;ratioP1;P1;durP2;ratioP2;P2;SDS_P1;SDS_P2;PMS_P1;PMS_P2;Temp;Humidity;BMP_temperature;BMP_pressure;BME280_temperature;BME280_humidity;BME280_pressure;Samples;Min_cycle;Max_cycle;Signal;HPM_P1;HPM_P2
2022/05/10 00:01:04;;;;;;;10.85;4.20;;;;;;;;;;4985209;28;20030;-67
2022/05/10 00:03:32;;;;;;;7.60;3.40;;;;;;;;;;4982521;28;20538;-68
2022/05/10 00:05:58;;;;;;;4.85;3.42;;;;;;;;;;4984618;28;20038;-68
2022/05/10 00:08:24;;;;;;;4.97;3.08;;;;;;;;;;4984872;28;20024;-67
2022/05/10 00:10:50;;;;;;;6.03;2.45;;;13.60;99.90;;;;;;4984771;28;20407;-67
2022/05/10 00:13:16;;;;;;;5.18;2.72;;;;;;;;;;4983281;28;20023;-68
2022/05/10 00:15:43;;;;;;;5.63;2.92;;;;;;;;;;4982680;28;20101;-68
2022/05/10 00:18:11;;;;;;;8.13;3.28;;;;;;;;;;4986381;28;20157;-68
2022/05/10 00:20:38;;;;;;;7.13;2.90;;;;;;;;;;4986703;28;20030;-68
2022/05/10 00:23:04;;;;;;;3.80;3.35;;;;;;;;;;4982313;28;20030;-67
2022/05/10 00:25:30;;;;;;;7.55;3.75;;;13.60;96.10;;;;;;4981889;28;20475;-68
2022/05/10 00:27:56;;;;;;;6.72;3.95;;;13.70;99.90;;;;;;4985774;28;20026;-66
2022/05/10 00:30:23;;;;;;;3.97;2.75;;;15.80;96.60;;;;;;4986424;28;20105;-68
2022/05/10 00:32:49;;;;;;;7.18;3.58;;;;;;;;;;4983072;28;20038;-68
2022/05/10 00:35:28;;;;;;;5.25;3.42;;;13.50;95.50;;;;;;4982121;28;20053;-67
2022/05/10 00:37:55;;;;;;;6.45;3.65;;;;;;;;;;4983434;28;20030;-67
2022/05/10 00:40:24;;;;;;;6.75;3.60;;;;;;;;;;4982930;28;20018;-68
2022/05/10 00:43:17;;;;;;;5.03;3.22;;;13.40;95.30;;;;;;4983184;28;20046;-66
2022/05/10 00:45:49;;;;;;;4.53;3.10;;;;;;;;;;4982331;28;20030;-68
2022/05/10 00:48:33;;;;;;;6.22;3.90;;;;;;;;;;4986970;28;20041;-67
2022/05/10 00:51:08;;;;;;;6.00;4.07;;;13.30;96.10;;;;;;4987343;28;20031;-67
2022/05/10 00:53:40;;;;;;;6.43;3.28;;;;;;;;;;4981050;28;20403;-67
2022/05/10 00:56:08;;;;;;;5.72;3.38;;;;;;;;;;4982497;28;20034;-68
2022/05/10 00:58:37;;;;;;;5.13;2.85;;;;;;;;;;4982431;28;20041;-68
2022/05/10 01:01:04;;;;;;;3.97;2.78;;;;;;;;;;4984340;28;20108;-68
2022/05/10 01:03:42;;;;;;;7.43;3.35;;;;;;;;;;4982372;28;20064;-67
2022/05/10 01:06:17;;;;;;;5.45;3.10;;;;;;;;;;4983632;28;20034;-67
2022/05/10 01:09:11;;;;;;;4.93;3.30;;;12.90;96.30;;;;;;4984193;28;20562;-67
2022/05/10 01:11:50;;;;;;;5.25;3.10;;;;;;;;;;4985050;28;20068;-67
2022/05/10 01:14:25;;;;;;;6.15;3.63;;;;;;;;;;4977227;28;20076;-67
2022/05/10 01:16:51;;;;;;;4.93;3.22;;;;;;;;;;4980676;28;20125;-67
2022/05/10 01:19:18;;;;;;;4.93;3.25;;;;;;;;;;4983415;28;20153;-67
2022/05/10 01:21:56;;;;;;;6.68;3.53;;;;;;;;;;4985552;28;20512;-68
2022/05/10 01:24:33;;;;;;;6.22;3.10;;;;;;;;;;4979125;28;20022;-68
2022/05/10 01:27:29;;;;;;;5.03;2.80;;;13.10;96.40;;;;;;4981307;28;20042;-66
2022/05/10 01:30:18;;;;;;;9.38;3.88;;;;;;;;;;4982050;28;20038;-67
2022/05/10 01:35:30;;;;;;;4.97;3.03;;;;;;;;;;4981607;28;20054;-68
2022/05/10 01:38:02;;;;;;;7.13;3.70;;;12.90;96.80;;;;;;4984073;28;20478;-67
2022/05/10 01:40:39;;;;;;;5.88;3.47;;;13.00;96.40;;;;;;4983699;28;20046;-68
2022/05/10 01:43:08;;;;;;;6.20;3.22;;;;;;;;;;4983465;28;20054;-66
2022/05/10 01:45:43;;;;;;;6.35;3.80;;;13.00;96.90;;;;;;4979736;28;20130;-68
2022/05/10 01:48:11;;;;;;;5.65;3.78;;;13.00;96.40;;;;;;4986926;28;20034;-68
2022/05/10 01:50:40;;;;;;;4.43;3.20;;;;;;;;;;4984036;28;20038;-67
2022/05/10 01:53:14;;;;;;;6.28;3.58;;;13.10;96.20;;;;;;4980418;28;20034;-68
2022/05/10 01:55:48;;;;;;;6.03;3.22;;;;;;;;;;4979681;28;20046;-68
2022/05/10 01:58:18;;;;;;;7.35;4.03;;;;;;;;;;4986214;28;20030;-67
2022/05/10 02:00:48;;;;;;;6.88;3.42;;;;;;;;;;4982604;28;20042;-67
2022/05/10 02:03:23;;;;;;;5.07;3.40;;;;;;;;;;4982636;28;20477;-68
2022/05/10 02:05:57;;;;;;;5.70;3.42;;;12.90;99.90;;;;;;4981871;28;20037;-68
2022/05/10 02:09:00;;;;;;;6.45;3.45;;;12.90;96.30;;;;;;4983521;28;20026;-68
2022/05/10 02:11:26;;;;;;;6.97;3.17;;;;;;;;;;4981216;28;20073;-68
2022/05/10 02:14:10;;;;;;;7.25;4.15;;;12.80;97.50;;;;;;4983931;28;20484;-67
2022/05/10 02:16:36;;;;;;;7.63;3.63;;;;;;;;;;4985197;28;20038;-67
2022/05/10 02:19:23;;;;;;;6.72;3.45;;;;;;;;;;4986209;28;20033;-68
2022/05/10 02:21:59;;;;;;;5.50;3.72;;;12.90;96.20;;;;;;4987253;28;20034;-67
2022/05/10 02:24:34;;;;;;;6.18;3.15;;;;;;;;;;4983559;28;20092;-68
2022/05/10 02:27:04;;;;;;;4.82;3.20;;;;;;;;;;4986112;28;20387;-67
2022/05/10 02:29:50;;;;;;;5.93;3.88;;;;;;;;;;4989056;28;20041;-67
2022/05/10 02:35:13;;;;;;;3.97;3.50;;;;;;;;;;4983805;28;20045;-67
2022/05/10 02:37:39;;;;;;;5.28;3.28;;;;;;;;;;4985267;28;20023;-67
2022/05/10 02:40:06;;;;;;;4.55;3.17;;;;;;;;;;4986594;28;20037;-68
2022/05/10 02:42:32;;;;;;;5.38;2.97;;;;;;;;;;4985386;28;20458;-67
2022/05/10 02:44:58;;;;;;;6.00;3.88;;;;;;;;;;4984100;28;20573;-67
2022/05/10 02:47:31;;;;;;;7.07;4.20;;;;;;;;;;4984061;28;20575;-67
2022/05/10 02:49:58;;;;;;;5.85;3.55;;;;;;;;;;4985639;28;20160;-68
2022/05/10 02:52:23;;;;;;;8.57;4.22;;;;;;;;;;4984707;28;20922;-68
2022/05/10 02:54:56;;;;;;;5.55;3.15;;;;;;;;;;4984994;28;20125;-68
2022/05/10 02:57:24;;;;;;;6.78;3.28;;;;;;;;;;4983789;28;20039;-68
2022/05/10 02:59:50;;;;;;;4.85;3.00;;;;;;;;;;4986550;28;20124;-68
2022/05/10 03:02:20;;;;;;;6.40;3.72;;;;;;;;;;4982962;28;20499;-69
2022/05/10 03:04:52;;;;;;;8.43;3.22;;;12.50;96.10;;;;;;4983685;28;20022;-66
2022/05/10 03:07:18;;;;;;;7.05;3.42;;;;;;;;;;4985950;28;20037;-67
2022/05/10 03:09:44;;;;;;;6.90;3.78;;;;;;;;;;4986593;28;20065;-67
2022/05/10 03:12:10;;;;;;;8.82;4.15;;;;;;;;;;4980338;28;20034;-69
2022/05/10 03:14:36;;;;;;;6.88;3.42;;;12.40;99.90;;;;;;4984338;28;20037;-68
2022/05/10 03:17:04;;;;;;;11.15;3.17;;;;;;;;;;4982297;28;20416;-68
2022/05/10 03:19:30;;;;;;;5.88;3.42;;;;;;;;;;4986893;28;20018;-67
2022/05/10 03:21:56;;;;;;;6.95;4.80;;;;;;;;;;4987484;28;20034;-66
2022/05/10 03:24:22;;;;;;;7.60;3.25;;;;;;;;;;4981111;28;20034;-69
2022/05/10 03:26:49;;;;;;;7.63;4.13;;;;;;;;;;4982708;28;20038;-67
2022/05/10 03:29:15;;;;;;;6.07;3.50;;;;;;;;;;4986100;28;20034;-67
2022/05/10 03:31:42;;;;;;;8.07;4.25;;;;;;;;;;4983397;28;20818;-68
2022/05/10 03:36:53;;;;;;;6.78;3.83;;;;;;;;;;4984197;28;20073;-68
2022/05/10 03:39:19;;;;;;;4.97;3.35;;;;;;;;;;4986384;28;20062;-68
2022/05/10 03:41:45;;;;;;;3.42;2.67;;;;;;;;;;4986636;28;20069;-67
2022/05/10 03:44:11;;;;;;;5.97;3.45;;;;;;;;;;4982330;28;20072;-67
2022/05/10 03:46:37;;;;;;;5.05;3.47;;;;;;;;;;4982639;28;20026;-68
2022/05/10 03:49:03;;;;;;;4.30;3.17;;;;;;;;;;4987184;28;20034;-67
2022/05/10 03:51:30;;;;;;;4.78;3.30;;;;;;;;;;4985923;28;20041;-67
2022/05/10 03:53:56;;;;;;;5.32;3.33;;;;;;;;;;4982805;28;20056;-68
2022/05/10 03:56:22;;;;;;;4.60;3.50;;;;;;;;;;4985080;28;20798;-68
2022/05/10 03:58:48;;;;;;;5.28;3.03;;;;;;;;;;4982846;28;20023;-67
2022/05/10 04:01:13;;;;;;;6.20;3.25;;;12.00;99.90;;;;;;4984746;28;20042;-68
2022/05/10 04:03:39;;;;;;;4.60;3.20;;;;;;;;;;4982995;28;20037;-67
2022/05/10 04:06:06;;;;;;;6.07;3.28;;;;;;;;;;4984439;28;20057;-68
2022/05/10 04:08:32;;;;;;;6.78;3.50;;;;;;;;;;4983161;28;20033;-68
2022/05/10 04:11:06;;;;;;;5.70;3.85;;;;;;;;;;4983269;28;20030;-68
2022/05/10 04:13:32;;;;;;;6.10;3.42;;;;;;;;;;4982339;28;20030;-68
2022/05/10 04:15:58;;;;;;;7.93;4.07;;;;;;;;;;4982714;28;20030;-68
2022/05/10 04:18:25;;;;;;;7.18;3.53;;;;;;;;;;4986613;28;20058;-68
2022/05/10 04:20:50;;;;;;;7.22;3.38;;;12.10;99.90;;;;;;4983953;28;20128;-67
2022/05/10 04:23:16;;;;;;;4.28;3.22;;;12.20;99.90;;;;;;4982721;28;20219;-68
2022/05/10 04:25:42;;;;;;;6.63;4.15;;;;;;;;;;4984133;28;20495;-65
2022/05/10 04:28:08;;;;;;;5.63;3.38;;;;;;;;;;4982657;28;20030;-68
2022/05/10 04:30:34;;;;;;;8.65;3.60;;;;;;;;;;4984506;28;20030;-67
2022/05/10 04:33:01;;;;;;;6.88;3.65;;;;;;;;;;4980840;28;20053;-68
2022/05/10 04:35:27;;;;;;;8.05;4.13;;;;;;;;;;4979806;28;20093;-66
2022/05/10 04:37:53;;;;;;;5.13;3.45;;;12.20;99.90;;;;;;4980364;28;20088;-68
2022/05/10 04:43:05;;;;;;;5.38;3.47;;;;;;;;;;4981858;28;20125;-67
2022/05/10 04:45:31;;;;;;;6.60;3.80;;;;;;;;;;4996879;28;20109;-68
2022/05/10 04:47:57;;;;;;;5.07;3.20;;;12.10;99.90;;;;;;4985865;28;20106;-67
2022/05/10 04:50:23;;;;;;;7.45;3.40;;;;;;;;;;4982937;28;20144;-67
2022/05/10 04:52:49;;;;;;;7.50;3.58;;;;;;;;;;4980749;28;20038;-67
2022/05/10 04:55:15;;;;;;;5.75;3.05;;;;;;;;;;4983778;28;20037;-68
2022/05/10 04:57:41;;;;;;;5.43;3.08;;;;;;;;;;4985841;28;20042;-67
2022/05/10 05:00:09;;;;;;;4.88;3.13;;;;;;;;;;4986468;28;20057;-68
2022/05/10 05:02:35;;;;;;;6.00;3.60;;;;;;;;;;4981271;28;20037;-66
2022/05/10 05:05:02;;;;;;;7.00;3.92;;;;;;;;;;4983486;28;20097;-67
2022/05/10 05:07:28;;;;;;;5.15;3.67;;;;;;;;;;4984196;28;20042;-67
2022/05/10 05:09:55;;;;;;;6.38;3.72;;;;;;;;;;4987774;28;20076;-68
2022/05/10 05:12:22;;;;;;;7.95;3.47;;;;;;;;;;4982083;28;20397;-68
2022/05/10 05:14:48;;;;;;;6.68;4.20;;;;;;;;;;4978304;28;20034;-67
2022/05/10 05:17:14;;;;;;;10.65;5.85;;;;;;;;;;4984199;28;20038;-68
2022/05/10 05:19:40;;;;;;;9.57;4.32;;;;;;;;;;4982632;28;20047;-67
2022/05/10 05:22:06;;;;;;;6.35;3.80;;;;;;;;;;4980997;28;20194;-68
2022/05/10 05:24:32;;;;;;;7.70;3.95;;;;;;;;;;4981337;28;20030;-68
2022/05/10 05:26:58;;;;;;;5.85;3.35;;;;;;;;;;4983728;28;20049;-67
2022/05/10 05:29:24;;;;;;;6.38;3.85;;;;;;;;;;4981655;28;20026;-66
2022/05/10 05:31:52;;;;;;;6.28;3.40;;;;;;;;;;4983242;28;20101;-68
2022/05/10 05:34:18;;;;;;;6.28;3.75;;;;;;;;;;4986196;28;20022;-68
2022/05/10 05:37:32;;;;;;;5.15;3.85;;;13.30;99.90;;;;;;4980744;28;20100;-71
2022/05/10 05:39:30;;;;;;;6.82;4.45;;;;;;;;;;4984770;28;20023;-69
2022/05/10 05:41:56;;;;;;;7.78;4.47;;;;;;;;;;4978806;28;20074;-70
2022/05/10 05:44:23;;;;;;;4.53;3.50;;;;;;;;;;4986159;28;20069;-72
2022/05/10 05:46:49;;;;;;;8.10;4.45;;;;;;;;;;4983886;28;20448;-72
2022/05/10 05:49:15;;;;;;;7.13;3.95;;;;;;;;;;5006777;28;20511;-72
2022/05/10 05:51:41;;;;;;;6.50;3.38;;;;;;;;;;4989605;28;20038;-70
2022/05/10 05:54:09;;;;;;;7.22;3.55;;;;;;;;;;4993058;28;20025;-71
2022/05/10 05:56:35;;;;;;;5.65;3.47;;;;;;;;;;4994556;28;20049;-72
2022/05/10 05:59:01;;;;;;;6.97;3.70;;;;;;;;;;4985335;28;20081;-73
2022/05/10 06:01:27;;;;;;;7.18;4.68;;;;;;;;;;4989516;28;20066;-72
2022/05/10 06:03:55;;;;;;;7.40;3.78;;;;;;;;;;4976608;28;20038;-71
2022/05/10 06:06:22;;;;;;;5.72;3.90;;;;;;;;;;4975500;28;20433;-72
2022/05/10 06:08:48;;;;;;;18.40;5.43;;;;;;;;;;4993425;28;20018;-72
2022/05/10 06:11:14;;;;;;;7.55;3.88;;;;;;;;;;4983217;28;20038;-71
2022/05/10 06:13:41;;;;;;;6.93;4.00;;;;;;;;;;4978973;28;20396;-72
2022/05/10 06:16:07;;;;;;;6.35;4.00;;;;;;;;;;4978127;28;20042;-71
2022/05/10 06:18:33;;;;;;;8.80;4.63;;;;;;;;;;4974237;28;20050;-70
2022/05/10 06:20:59;;;;;;;7.22;4.50;;;;;;;;;;4977711;28;20357;-67
2022/05/10 06:23:25;;;;;;;5.80;3.65;;;;;;;;;;4986031;28;20118;-67
2022/05/10 06:25:51;;;;;;;7.00;3.33;;;;;;;;;;4983957;28;20033;-67
2022/05/10 06:28:19;;;;;;;6.88;3.42;;;;;;;;;;4986346;28;20035;-67
2022/05/10 06:30:45;;;;;;;6.18;4.32;;;;;;;;;;4989287;28;20038;-68
2022/05/10 06:33:11;;;;;;;5.55;3.40;;;;;;;;;;4992494;28;20041;-69
2022/05/10 06:35:38;;;;;;;6.22;3.45;;;;;;;;;;4987536;28;20491;-68
2022/05/10 06:38:16;;;;;;;5.90;3.97;;;17.00;98.60;;;;;;4987008;28;20035;-69
2022/05/10 06:40:42;;;;;;;7.43;4.18;;;;;;;;;;4988128;28;20030;-66
2022/05/10 06:43:08;;;;;;;6.28;4.25;;;;;;;;;;4990670;28;20054;-66
2022/05/10 06:45:34;;;;;;;5.75;3.63;;;;;;;;;;4976807;28;20026;-66
2022/05/10 06:48:00;;;;;;;3.80;3.25;;;19.00;99.30;;;;;;4987643;28;20484;-66
2022/05/10 06:50:26;;;;;;;4.30;3.30;;;;;;;;;;4981012;28;20023;-66
2022/05/10 06:52:54;;;;;;;3.13;2.75;;;;;;;;;;4983135;28;20038;-66
2022/05/10 06:55:20;;;;;;;4.90;2.70;;;24.40;71.30;;;;;;4978724;28;20476;-67
2022/05/10 06:57:46;;;;;;;3.85;2.60;;;25.70;73.60;;;;;;4990565;28;20022;-67
2022/05/10 07:00:13;;;;;;;3.95;2.70;;;27.40;60.30;;;;;;4986476;28;20029;-67
2022/05/10 07:02:39;;;;;;;3.45;2.53;;;28.70;68.50;;;;;;4988137;28;20052;-68
2022/05/10 07:05:05;;;;;;;;;;;;;;;;;;4986554;28;20030;-70
2022/05/10 07:07:30;;;;;;;3.00;2.10;;;30.40;66.10;;;;;;4985522;28;19914;-68
2022/05/10 07:09:56;;;;;;;4.45;2.30;;;;;;;;;;4986888;28;20114;-66
2022/05/10 07:12:22;;;;;;;3.63;2.65;;;;;;;;;;4974011;28;20023;-67
2022/05/10 07:14:49;;;;;;;3.72;2.60;;;;;;;;;;4979546;28;20109;-66
2022/05/10 07:17:15;;;;;;;5.80;2.80;;;;;;;;;;4985086;28;20061;-67
2022/05/10 07:19:41;;;;;;;3.95;2.42;;;;;;;;;;4990723;28;20447;-67
2022/05/10 07:22:07;;;;;;;5.00;2.10;;;;;;;;;;4986420;28;20035;-68
2022/05/10 07:24:33;;;;;;;8.73;2.00;;;;;;;;;;4986418;28;20100;-69
2022/05/10 07:26:59;;;;;;;3.08;2.65;;;;;;;;;;4976909;28;20416;-69
2022/05/10 07:29:25;;;;;;;2.53;2.15;;;;;;;;;;4977568;28;20026;-69
2022/05/10 07:31:53;;;;;;;3.63;2.17;;;;;;;;;;4977911;28;20128;-68
2022/05/10 07:34:19;;;;;;;2.20;1.85;;;;;;;;;;4974258;28;20026;-69
2022/05/10 07:36:45;;;;;;;3.35;2.55;;;34.00;56.10;;;;;;4989675;28;20125;-69
2022/05/10 07:39:16;;;;;;;3.45;2.08;;;34.40;39.60;;;;;;4985458;28;20121;-67
2022/05/10 07:41:43;;;;;;;3.42;2.40;;;;;;;;;;4985052;28;20042;-68
2022/05/10 07:44:10;;;;;;;2.53;2.15;;;;;;;;;;4983390;28;20039;-68
2022/05/10 07:46:36;;;;;;;3.38;1.95;;;;;;;;;;4983944;28;20563;-67
2022/05/10 07:49:02;;;;;;;4.60;2.05;;;;;;;;;;4974621;28;20121;-67
2022/05/10 07:51:28;;;;;;;3.50;2.53;;;;;;;;;;4972657;28;20026;-68
2022/05/10 07:53:54;;;;;;;2.53;2.08;;;;;;;;;;4976646;28;20602;-68
2022/05/10 07:56:24;;;;;;;4.13;2.15;;;;;;;;;;4977725;28;20038;-68
2022/05/10 07:58:49;;;;;;;2.90;2.10;;;34.40;47.70;;;;;;4975306;28;20034;-68
2022/05/10 08:01:15;;;;;;;4.18;2.33;;;;;;;;;;4984016;28;20404;-68
2022/05/10 08:03:43;;;;;;;3.50;1.60;;;;;;;;;;4988216;28;20491;-68
2022/05/10 08:06:09;;;;;;;2.55;1.80;;;;;;;;;;4990459;28;20042;-67
2022/05/10 08:08:36;;;;;;;3.45;2.15;;;;;;;;;;4988678;28;20022;-68
2022/05/10 08:11:04;;;;;;;3.13;2.25;;;;;;;;;;4987672;28;20030;-68
2022/05/10 08:13:31;;;;;;;5.15;3.03;;;;;;;;;;4984212;28;20038;-67
2022/05/10 08:15:57;;;;;;;3.22;2.25;;;;;;;;;;4977265;28;20057;-67
2022/05/10 08:18:24;;;;;;;4.50;1.90;;;;;;;;;;4985138;28;20073;-67
2022/05/10 08:20:51;;;;;;;3.00;2.50;;;;;;;;;;4984335;28;20081;-67
2022/05/10 08:23:18;;;;;;;2.22;2.03;;;;;;;;;;4979874;28;20109;-67
2022/05/10 08:25:44;;;;;;;2.80;1.55;;;;;;;;;;4974836;28;20072;-69
2022/05/10 08:28:13;;;;;;;2.63;1.58;;;37.60;52.20;;;;;;4984582;28;20182;-67
2022/05/10 08:30:44;;;;;;;2.20;1.65;;;;;;;;;;4986980;28;20042;-67
2022/05/10 08:33:10;;;;;;;2.80;1.85;;;;;;;;;;4984695;28;20034;-68
2022/05/10 08:35:38;;;;;;;1.10;0.90;;;38.00;34.30;;;;;;4985066;28;20085;-68
2022/05/10 08:38:05;;;;;;;2.75;1.48;;;39.40;32.70;;;;;;4984557;28;20491;-68
2022/05/10 08:40:48;;;;;;;3.45;1.40;;;38.90;31.70;;;;;;4984341;28;20368;-68
2022/05/10 08:43:26;;;;;;;1.65;1.38;;;38.40;32.80;;;;;;4990063;28;20054;-68
2022/05/10 08:45:52;;;;;;;2.08;1.38;;;38.70;39.80;;;;;;4972937;28;20515;-70
2022/05/10 08:48:18;;;;;;;4.88;1.67;;;37.70;49.60;;;;;;4992768;28;20036;-68
2022/05/10 08:50:46;;;;;;;2.92;1.67;;;;;;;;;;4973243;28;20366;-68
2022/05/10 08:53:13;;;;;;;3.47;1.67;;;38.30;50.50;;;;;;4976954;28;20027;-67
2022/05/10 08:55:52;;;;;;;1.73;1.50;;;;;;;;;;4983894;28;20524;-70
2022/05/10 08:58:23;;;;;;;4.47;1.13;;;38.10;47.90;;;;;;4985352;28;20125;-69
2022/05/10 09:00:54;;;;;;;2.20;1.90;;;;;;;;;;4985903;28;20038;-69
2022/05/10 09:03:43;;;;;;;3.67;2.05;;;36.90;32.70;;;;;;4987089;28;20022;-70
2022/05/10 09:06:46;;;;;;;1.73;1.30;;;36.80;32.70;;;;;;4990736;28;20058;-72
2022/05/10 09:09:30;;;;;;;1.50;1.40;;;36.90;32.60;;;;;;5005510;28;20542;-71
2022/05/10 09:12:13;;;;;;;3.15;1.40;;;37.60;31.80;;;;;;5004950;28;20054;-69
2022/05/10 09:14:55;;;;;;;3.10;1.30;;;38.20;31.10;;;;;;5003876;28;20096;-71
2022/05/10 09:17:24;;;;;;;1.83;1.23;;;38.00;32.10;;;;;;5004695;28;20100;-71
2022/05/10 09:19:51;;;;;;;1.15;0.93;;;38.40;47.20;;;;;;5003825;28;20030;-72
2022/05/10 09:22:22;;;;;;;1.55;1.08;;;39.20;31.10;;;;;;5004165;28;20033;-71
2022/05/10 09:24:52;;;;;;;1.50;0.80;;;38.60;43.20;;;;;;4989227;28;20034;-72
2022/05/10 09:27:19;;;;;;;2.25;0.90;;;;;;;;;;5004844;28;20542;-69
2022/05/10 09:29:50;;;;;;;1.10;0.77;;;39.00;27.50;;;;;;5004732;28;20044;-69
2022/05/10 09:35:07;;;;;;;1.08;0.82;;;;;;;;;;5003241;28;20044;-70
2022/05/10 09:37:43;;;;;;;1.35;0.73;;;;;;;;;;5003887;28;20209;-70
2022/05/10 09:40:19;;;;;;;1.15;0.60;;;;;;;;;;5004847;28;20061;-69
2022/05/10 09:42:49;;;;;;;1.50;0.57;;;;;;;;;;5002322;28;20485;-69
2022/05/10 09:45:26;;;;;;;1.90;0.73;;;36.90;28.90;;;;;;4995033;28;20033;-69
2022/05/10 09:48:17;;;;;;;3.35;0.90;;;36.50;28.70;;;;;;4986641;28;20088;-70
2022/05/10 09:50:42;;;;;;;2.38;1.23;;;37.10;43.80;;;;;;4987501;28;20026;-68
2022/05/10 09:53:18;;;;;;;1.67;1.15;;;37.00;31.80;;;;;;4987448;28;20080;-69
2022/05/10 09:55:57;;;;;;;1.13;0.73;;;37.50;27.60;;;;;;4989294;28;20042;-70
2022/05/10 09:58:54;;;;;;;1.77;0.95;;;38.00;27.30;;;;;;4985841;28;20030;-71
2022/05/10 10:01:39;;;;;;;1.83;1.50;;;37.60;27.40;;;;;;4988120;28;20455;-70
2022/05/10 10:04:23;;;;;;;2.30;0.60;;;;;;;;;;4974131;28;20038;-70
2022/05/10 10:07:16;;;;;;;1.20;0.60;;;;;;;;;;4973260;28;20462;-68
2022/05/10 10:09:43;;;;;;;1.95;1.20;;;;;;;;;;4986029;28;20578;-67
2022/05/10 10:12:33;;;;;;;1.45;0.82;;;34.70;29.20;;;;;;4986185;28;20496;-68
2022/05/10 10:14:59;;;;;;;2.55;1.05;;;;;;;;;;4976077;28;20434;-69
2022/05/10 10:17:27;;;;;;;1.50;0.75;;;;;;;;;;4977857;28;20377;-68
2022/05/10 10:20:24;;;;;;;1.63;0.77;;;35.10;28.30;;;;;;4975505;28;20045;-69
2022/05/10 10:22:52;;;;;;;5.22;1.27;;;;;;;;;;4975542;28;20102;-68
2022/05/10 10:25:33;;;;;;;3.85;1.70;;;35.50;29.40;;;;;;4975386;28;20402;-68
2022/05/10 10:27:59;;;;;;;1.20;0.70;;;;;;;;;;4974252;28;20033;-68
2022/05/10 10:30:25;;;;;;;1.08;0.73;;;;;;;;;;4987314;28;20041;-68
2022/05/10 10:33:09;;;;;;;0.85;0.70;;;35.50;28.10;;;;;;4990489;28;20134;-68
2022/05/10 10:35:39;;;;;;;1.30;0.77;;;;;;;;;;4979050;28;20122;-67
2022/05/10 10:38:35;;;;;;;1.30;0.70;;;36.30;44.50;;;;;;4980606;28;20121;-67
2022/05/10 10:41:05;;;;;;;0.90;0.60;;;;;;;;;;4985387;28;20289;-68
2022/05/10 10:43:38;;;;;;;1.05;0.47;;;;;;;;;;4987396;28;20163;-67
2022/05/10 10:46:28;;;;;;;0.82;0.52;;;35.20;28.30;;;;;;4977635;28;20077;-67
2022/05/10 10:48:56;;;;;;;1.38;0.68;;;;;;;;;;4987854;28;20034;-68
2022/05/10 10:51:26;;;;;;;2.30;1.15;;;;;;;;;;4974231;28;20135;-68
2022/05/10 10:53:52;;;;;;;2.17;1.05;;;;;;;;;;4978029;28;20042;-70
2022/05/10 10:56:21;;;;;;;0.82;0.52;;;;;;;;;;4978392;28;20042;-67
2022/05/10 10:59:00;;;;;;;0.80;0.60;;;;;;;;;;4978675;28;20515;-68
2022/05/10 11:01:38;;;;;;;1.77;0.60;;;33.60;30.60;;;;;;4979264;28;20209;-68
2022/05/10 11:04:22;;;;;;;1.23;0.50;;;33.30;28.90;;;;;;4974601;28;20409;-68
2022/05/10 11:06:50;;;;;;;4.20;1.00;;;;;;;;;;4974550;28;20033;-67
2022/05/10 11:09:22;;;;;;;1.17;0.65;;;;;;;;;;4975416;28;20034;-68
2022/05/10 11:11:51;;;;;;;0.93;0.60;;;;;;;;;;4978953;28;20062;-68
2022/05/10 11:14:32;;;;;;;1.30;0.77;;;;;;;;;;4982649;28;20037;-68
2022/05/10 11:17:17;;;;;;;2.80;0.77;;;;;;;;;;4985175;28;20037;-68
2022/05/10 11:19:43;;;;;;;1.25;0.77;;;;;;;;;;4982844;28;20106;-68
2022/05/10 11:22:15;;;;;;;5.33;1.17;;;;;;;;;;4974220;28;20113;-68
2022/05/10 11:24:41;;;;;;;3.47;0.75;;;;;;;;;;4991275;28;20026;-67
2022/05/10 11:27:56;;;;;;;1.10;0.67;;;29.90;32.30;;;;;;4976203;28;20059;-68
2022/05/10 11:30:28;;;;;;;1.55;0.70;;;;;;;;;;4986513;28;20049;-69
2022/05/10 11:33:03;;;;;;;1.77;0.70;;;;;;;;;;4980979;28;20019;-67
2022/05/10 11:35:50;;;;;;;1.30;1.20;;;29.60;33.50;;;;;;4984751;28;20100;-68
2022/05/10 11:38:25;;;;;;;1.67;0.82;;;;;;;;;;4984929;28;20034;-67
2022/05/10 11:41:08;;;;;;;3.30;1.30;;;;;;;;;;4985150;28;20038;-66
2022/05/10 11:43:53;;;;;;;6.97;1.58;;;;;;;;;;4977681;28;20058;-69
2022/05/10 11:46:31;;;;;;;4.43;1.45;;;;;;;;;;4981608;28;20034;-68
2022/05/10 11:49:12;;;;;;;10.45;0.93;;;;;;;;;;4981209;28;20076;-66
2022/05/10 11:51:46;;;;;;;8.30;1.20;;;;;;;;;;4988590;28;20040;-67
2022/05/10 11:54:40;;;;;;;9.27;1.85;;;;;;;;;;4975357;28;20023;-68
2022/05/10 11:57:11;;;;;;;27.23;4.72;;;;;;;;;;4994015;28;20594;-69
2022/05/10 11:59:40;;;;;;;1.75;0.93;;;29.60;34.20;;;;;;4979398;28;20026;-66
2022/05/10 12:02:07;;;;;;;3.28;1.40;;;;;;;;;;4981126;28;20793;-68
2022/05/10 12:04:35;;;;;;;2.17;1.58;;;;;;;;;;4979997;28;20026;-66
2022/05/10 12:07:33;;;;;;;1.73;1.35;;;;;;;;;;4988362;28;20023;-66
2022/05/10 12:10:01;;;;;;;3.63;1.55;;;;;;;;;;4991439;28;20042;-67
2022/05/10 12:12:33;;;;;;;1.88;1.63;;;;;;;;;;5006483;28;20038;-70
2022/05/10 12:21:19;;;;;;;13.60;1.50;;;;;;;;;;5005947;28;20518;-66
2022/05/10 12:24:04;;;;;;;2.72;1.30;;;;;;;;;;5006088;28;20040;-69
2022/05/10 12:26:44;;;;;;;2.13;1.55;;;;;;;;;;5004135;28;20045;-69
2022/05/10 12:29:32;;;;;;;1.98;1.15;;;;;;;;;;5004985;28;20104;-69
2022/05/10 12:32:02;;;;;;;3.03;1.30;;;;;;;;;;5004574;28;20053;-69
2022/05/10 12:34:45;;;;;;;2.80;1.67;;;28.90;34.60;;;;;;5005624;28;20419;-68
2022/05/10 12:37:21;;;;;;;3.53;1.90;;;;;;;;;;5005105;28;20076;-67
2022/05/10 12:39:51;;;;;;;4.18;2.25;;;;;;;;;;5004607;28;20110;-66
2022/05/10 12:42:24;;;;;;;2.85;1.90;;;29.00;35.10;;;;;;5005747;28;20551;-68
2022/05/10 12:45:06;;;;;;;25.85;2.38;;;;;;;;;;5002084;28;20100;-69
2022/05/10 12:48:10;;;;;;;1.67;1.00;;;29.20;35.40;;;;;;4978535;28;20563;-68
2022/05/10 12:50:45;;;;;;;2.92;1.25;;;;;;;;;;4985234;28;20038;-69
2022/05/10 12:53:34;;;;;;;3.72;1.45;;;;;;;;;;4982410;28;20026;-69
2022/05/10 12:56:04;;;;;;;10.90;2.55;;;;;;;;;;4990144;28;20044;-66
2022/05/10 12:58:34;;;;;;;1.38;1.00;;;;;;;;;;4977031;28;20050;-67
2022/05/10 13:01:01;;;;;;;459.63;116.15;;;;;;;;;;4971251;28;20033;-62
2022/05/10 13:03:27;;;;;;;;;;;;;;;;;;4987273;28;20022;-64
2022/05/10 13:05:57;;;;;;;1.53;0.77;;;;;;;;;;4986780;28;19917;-66
2022/05/10 13:08:34;;;;;;;1.77;1.23;;;;;;;;;;4983203;28;20034;-65
2022/05/10 13:11:00;;;;;;;;;;;26.90;37.30;;;;;;4983655;28;20508;-64
2022/05/10 13:13:30;;;;;;;2.70;2.10;;;;;;;;;;4985274;28;20407;-66
2022/05/10 13:15:57;;;;;;;16.02;3.85;;;;;;;;;;4972817;28;20325;-66
2022/05/10 13:18:25;;;;;;;1.92;1.70;;;;;;;;;;4972027;28;20046;-67
2022/05/10 13:20:53;;;;;;;10.68;3.35;;;;;;;;;;4987415;28;20022;-64
2022/05/10 13:23:19;;;;;;;452.15;123.70;;;;;;;;;;4979795;28;20037;-66
2022/05/10 13:25:47;;;;;;;3.10;1.40;;;26.70;36.90;;;;;;4979478;28;20517;-67
2022/05/10 13:28:23;;;;;;;1.95;1.17;;;;;;;;;;4988337;28;20117;-68
2022/05/10 13:30:50;;;;;;;3.45;1.40;;;;;;;;;;4974496;28;20031;-66
2022/05/10 13:33:16;;;;;;;;;;;;;;;;;;4985263;28;20034;-69
2022/05/10 13:35:42;;;;;;;1.70;1.03;;;;;;;;;;4983009;28;19918;-69
2022/05/10 13:38:19;;;;;;;1.92;1.20;;;;;;;;;;4982833;28;20447;-73
2022/05/10 13:40:49;;;;;;;13.52;2.33;;;;;;;;;;4983331;28;20105;-72
2022/05/10 13:43:16;;;;;;;2.10;1.67;;;;;;;;;;4975161;28;20132;-71
2022/05/10 13:45:43;;;;;;;7.53;1.27;;;;;;;;;;4970870;28;20037;-70
2022/05/10 13:48:12;;;;;;;1.65;1.13;;;;;;;;;;4973870;28;20031;-70
2022/05/10 13:50:40;;;;;;;2.03;1.27;;;;;;;;;;4981787;28;20077;-70
2022/05/10 13:53:07;;;;;;;2.13;1.38;;;;;;;;;;4986552;28;20487;-71
2022/05/10 13:55:33;;;;;;;2.70;1.60;;;;;;;;;;4986606;28;20037;-70
2022/05/10 13:58:02;;;;;;;2.30;1.63;;;26.70;39.80;;;;;;4983671;28;20351;-70
2022/05/10 14:00:34;;;;;;;5.88;1.70;;;;;;;;;;4985454;28;20682;-70
2022/05/10 14:03:01;;;;;;;2.67;1.73;;;;;;;;;;4988007;28;20142;-70
2022/05/10 14:05:29;;;;;;;4.55;1.75;;;26.50;38.60;;;;;;4986457;28;20038;-70
2022/05/10 14:08:11;;;;;;;1.80;1.33;;;;;;;;;;4980767;28;20049;-72
2022/05/10 14:10:39;;;;;;;4.40;1.45;;;;;;;;;;4987448;28;20113;-73
2022/05/10 14:13:08;;;;;;;2.38;1.75;;;;;;;;;;4990082;28;20497;-73
2022/05/10 14:15:39;;;;;;;2.42;1.17;;;;;;;;;;4986965;28;20034;-72
2022/05/10 14:18:08;;;;;;;2.53;1.63;;;;;;;;;;4984922;28;20057;-73
2022/05/10 14:20:40;;;;;;;1.92;1.60;;;;;;;;;;4981678;28;20026;-72
2022/05/10 14:23:07;;;;;;;2.97;1.92;;;;;;;;;;4983517;28;20531;-72
2022/05/10 14:25:35;;;;;;;6.13;2.00;;;;;;;;;;4976100;28;20226;-72
2022/05/10 14:28:19;;;;;;;1.67;1.13;;;;;;;;;;4980536;28;20554;-72
2022/05/10 14:30:48;;;;;;;2.00;1.45;;;;;;;;;;4984167;28;20061;-72
2022/05/10 14:33:18;;;;;;;3.60;1.63;;;;;;;;;;4988435;28;20034;-70
2022/05/10 14:35:47;;;;;;;7.10;1.55;;;;;;;;;;4984085;28;20061;-70
2022/05/10 14:38:15;;;;;;;3.45;1.85;;;;;;;;;;4982975;28;20065;-69
2022/05/10 14:40:42;;;;;;;4.05;1.70;;;26.10;41.00;;;;;;4984192;28;20031;-69
2022/05/10 14:43:11;;;;;;;2.67;1.25;;;;;;;;;;4990060;28;20050;-69
2022/05/10 14:45:45;;;;;;;3.05;1.63;;;;;;;;;;4988872;28;20030;-70
2022/05/10 14:48:31;;;;;;;2.47;1.50;;;;;;;;;;4992710;28;20077;-71
2022/05/10 14:51:05;;;;;;;2.27;1.30;;;;;;;;;;4990223;28;20425;-70
2022/05/10 14:53:33;;;;;;;2.20;1.52;;;;;;;;;;4986267;28;20096;-69
2022/05/10 14:56:03;;;;;;;1.95;1.52;;;26.90;39.10;;;;;;4986178;28;20566;-69